EWG4UY EDDL-LIEO
Flight info
| Callsign | EWG4UY |
|---|---|
| Flight time | N/A |
| Altitude | 37000 |
| Route | DODEN1T/23L DODEN Y852 NATOR DCT TRA DCT RIPUS DCT GERSA DCT SOSON DCT ODINA DCT UNITA DCT OLETI DCT TORTU DCT OKROK DCT AJO DCT CORSI |
| Aircraft | A320/M-SDE3FGHIRWY/LB1 |
Departure
| Time | N/A |
|---|---|
| Airport | Düsseldorf Airport (EDDL) |
Arrival
| Time | 2026-05-05 11:07 |
|---|---|
| Airport | Olbia Costa Smeralda Airport (LIEO) |
| Time | Latitude | Longitude | Altitude | Speed | Heading |
|---|---|---|---|---|---|
| 2026-05-05 10:32 | 43.52796 | 8.97491 | 36983 ft | 415 kts | 191° |
| 2026-05-05 10:32 | 43.50848 | 8.97260 | 36985 ft | 415 kts | 191° |
| 2026-05-05 10:33 | 43.45093 | 8.96577 | 36976 ft | 415 kts | 191° |
| 2026-05-05 10:33 | 43.39377 | 8.95892 | 36986 ft | 415 kts | 191° |
| 2026-05-05 10:34 | 43.33622 | 8.95218 | 36987 ft | 415 kts | 190° |
| 2026-05-05 10:34 | 43.27864 | 8.94554 | 36965 ft | 415 kts | 190° |
| 2026-05-05 10:35 | 43.22110 | 8.93892 | 36985 ft | 415 kts | 190° |
| 2026-05-05 10:35 | 43.16362 | 8.93236 | 36993 ft | 415 kts | 190° |
| 2026-05-05 10:36 | 43.10603 | 8.92567 | 37000 ft | 414 kts | 190° |
| 2026-05-05 10:36 | 43.04857 | 8.91897 | 36999 ft | 414 kts | 190° |
| 2026-05-05 10:37 | 42.99121 | 8.91228 | 36996 ft | 414 kts | 190° |
| 2026-05-05 10:37 | 42.93421 | 8.90575 | 36997 ft | 414 kts | 190° |
| 2026-05-05 10:38 | 42.87686 | 8.89919 | 36966 ft | 414 kts | 190° |
| 2026-05-05 10:38 | 42.81944 | 8.89270 | 36975 ft | 413 kts | 190° |
| 2026-05-05 10:39 | 42.76212 | 8.88619 | 36982 ft | 413 kts | 190° |
| 2026-05-05 10:39 | 42.73342 | 8.88291 | 36880 ft | 414 kts | 190° |
| 2026-05-05 10:39 | 42.70475 | 8.87965 | 36611 ft | 412 kts | 190° |
| 2026-05-05 10:40 | 42.67657 | 8.87641 | 36357 ft | 412 kts | 190° |
| 2026-05-05 10:40 | 42.64800 | 8.87314 | 35944 ft | 412 kts | 190° |
| 2026-05-05 10:40 | 42.61941 | 8.86988 | 35320 ft | 412 kts | 190° |
| 2026-05-05 10:40 | 42.59085 | 8.86663 | 34689 ft | 413 kts | 190° |
| 2026-05-05 10:41 | 42.56208 | 8.86338 | 34061 ft | 413 kts | 191° |
| 2026-05-05 10:41 | 42.53340 | 8.86015 | 33403 ft | 413 kts | 191° |
| 2026-05-05 10:41 | 42.50522 | 8.85701 | 32886 ft | 410 kts | 191° |
| 2026-05-05 10:41 | 42.47689 | 8.85388 | 32349 ft | 407 kts | 191° |
| 2026-05-05 10:42 | 42.42050 | 8.85192 | 31333 ft | 406 kts | 184° |
| 2026-05-05 10:42 | 42.39234 | 8.85368 | 30832 ft | 404 kts | 183° |
| 2026-05-05 10:42 | 42.36439 | 8.85558 | 30352 ft | 401 kts | 183° |
| 2026-05-05 10:43 | 42.33660 | 8.85754 | 29871 ft | 399 kts | 183° |
| 2026-05-05 10:43 | 42.30900 | 8.85951 | 29343 ft | 396 kts | 183° |
| 2026-05-05 10:43 | 42.28156 | 8.86148 | 28843 ft | 393 kts | 183° |
| 2026-05-05 10:43 | 42.25435 | 8.86338 | 28321 ft | 390 kts | 184° |
| 2026-05-05 10:44 | 42.22733 | 8.86520 | 27826 ft | 387 kts | 184° |
| 2026-05-05 10:44 | 42.20053 | 8.86701 | 27361 ft | 384 kts | 184° |
| 2026-05-05 10:44 | 42.17390 | 8.86880 | 26921 ft | 382 kts | 184° |
| 2026-05-05 10:44 | 42.14744 | 8.87054 | 26455 ft | 380 kts | 184° |
| 2026-05-05 10:45 | 42.12111 | 8.87223 | 26028 ft | 378 kts | 184° |
| 2026-05-05 10:45 | 42.09490 | 8.87390 | 25634 ft | 376 kts | 184° |
| 2026-05-05 10:45 | 42.06917 | 8.87555 | 25252 ft | 374 kts | 184° |
| 2026-05-05 10:45 | 42.04326 | 8.87727 | 24836 ft | 372 kts | 183° |
| 2026-05-05 10:46 | 42.01739 | 8.87904 | 24411 ft | 371 kts | 183° |
| 2026-05-05 10:46 | 41.99166 | 8.88079 | 24021 ft | 369 kts | 183° |
| 2026-05-05 10:46 | 41.96601 | 8.88253 | 23645 ft | 368 kts | 183° |
| 2026-05-05 10:46 | 41.94051 | 8.88422 | 23207 ft | 366 kts | 183° |
| 2026-05-05 10:47 | 41.91517 | 8.88590 | 22754 ft | 363 kts | 183° |
| 2026-05-05 10:47 | 41.88999 | 8.88749 | 22317 ft | 361 kts | 183° |
| 2026-05-05 10:47 | 41.86501 | 8.88907 | 21895 ft | 358 kts | 183° |
| 2026-05-05 10:47 | 41.84022 | 8.89068 | 21421 ft | 356 kts | 182° |
| 2026-05-05 10:48 | 41.81553 | 8.89234 | 20947 ft | 355 kts | 182° |
| 2026-05-05 10:48 | 41.79092 | 8.89403 | 20510 ft | 353 kts | 182° |
| 2026-05-05 10:48 | 41.76681 | 8.89566 | 20078 ft | 350 kts | 182° |
| 2026-05-05 10:48 | 41.74256 | 8.89727 | 19659 ft | 348 kts | 182° |
| 2026-05-05 10:49 | 41.71836 | 8.89885 | 19269 ft | 346 kts | 181° |
| 2026-05-05 10:49 | 41.69441 | 8.90041 | 19029 ft | 345 kts | 181° |
| 2026-05-05 10:49 | 41.67042 | 8.90196 | 18798 ft | 345 kts | 181° |
| 2026-05-05 10:49 | 41.64648 | 8.90350 | 18561 ft | 344 kts | 181° |
| 2026-05-05 10:50 | 41.62271 | 8.90506 | 18323 ft | 342 kts | 181° |
| 2026-05-05 10:50 | 41.59894 | 8.90661 | 18058 ft | 341 kts | 181° |
| 2026-05-05 10:50 | 41.57527 | 8.90817 | 17791 ft | 340 kts | 181° |
| 2026-05-05 10:50 | 41.55168 | 8.90971 | 17530 ft | 338 kts | 181° |
| 2026-05-05 10:51 | 41.52823 | 8.91123 | 17264 ft | 337 kts | 181° |
| 2026-05-05 10:51 | 41.50486 | 8.91278 | 17006 ft | 335 kts | 181° |
| 2026-05-05 10:51 | 41.48160 | 8.91431 | 16748 ft | 334 kts | 181° |
| 2026-05-05 10:51 | 41.45843 | 8.91581 | 16493 ft | 333 kts | 181° |
| 2026-05-05 10:52 | 41.43539 | 8.91730 | 16242 ft | 331 kts | 181° |
| 2026-05-05 10:52 | 41.41240 | 8.91878 | 15981 ft | 330 kts | 181° |
| 2026-05-05 10:52 | 41.38981 | 8.92022 | 15734 ft | 328 kts | 181° |
| 2026-05-05 10:52 | 41.36705 | 8.92168 | 15485 ft | 327 kts | 181° |
| 2026-05-05 10:53 | 41.34450 | 8.92518 | 15226 ft | 330 kts | 168° |
| 2026-05-05 10:53 | 41.32287 | 8.93551 | 14921 ft | 330 kts | 163° |
| 2026-05-05 10:53 | 41.30140 | 8.94653 | 14692 ft | 329 kts | 163° |
| 2026-05-05 10:53 | 41.28005 | 8.95758 | 14453 ft | 328 kts | 163° |
| 2026-05-05 10:54 | 41.25884 | 8.96860 | 14168 ft | 327 kts | 163° |
| 2026-05-05 10:54 | 41.23775 | 8.97957 | 13788 ft | 324 kts | 163° |
| 2026-05-05 10:54 | 41.21677 | 8.99044 | 13345 ft | 323 kts | 163° |
| 2026-05-05 10:54 | 41.19598 | 9.00117 | 13041 ft | 316 kts | 163° |
| 2026-05-05 10:55 | 41.17602 | 9.01149 | 12903 ft | 306 kts | 163° |
| 2026-05-05 10:55 | 41.15645 | 9.02158 | 12697 ft | 299 kts | 163° |
| 2026-05-05 10:55 | 41.13713 | 9.03148 | 12441 ft | 297 kts | 163° |
| 2026-05-05 10:55 | 41.11790 | 9.04130 | 12186 ft | 296 kts | 163° |
| 2026-05-05 10:56 | 41.09870 | 9.05108 | 11938 ft | 295 kts | 163° |
| 2026-05-05 10:56 | 41.07957 | 9.06082 | 11580 ft | 295 kts | 163° |
| 2026-05-05 10:56 | 41.06042 | 9.07059 | 11194 ft | 295 kts | 163° |
| 2026-05-05 10:56 | 41.04124 | 9.08038 | 10802 ft | 296 kts | 163° |
| 2026-05-05 10:57 | 41.02202 | 9.09022 | 10405 ft | 297 kts | 163° |
| 2026-05-05 10:57 | 41.00293 | 9.10001 | 10232 ft | 291 kts | 163° |
| 2026-05-05 10:57 | 40.98399 | 9.10973 | 10118 ft | 292 kts | 163° |
| 2026-05-05 10:57 | 40.96507 | 9.11938 | 9975 ft | 292 kts | 163° |
| 2026-05-05 10:58 | 40.94583 | 9.12915 | 9226 ft | 302 kts | 163° |
| 2026-05-05 10:58 | 40.92626 | 9.13907 | 8936 ft | 296 kts | 163° |
| 2026-05-05 10:58 | 40.90740 | 9.14871 | 8793 ft | 286 kts | 163° |
| 2026-05-05 10:58 | 40.88902 | 9.15815 | 8540 ft | 281 kts | 163° |
| 2026-05-05 10:59 | 40.87089 | 9.16741 | 8079 ft | 278 kts | 163° |
| 2026-05-05 10:59 | 40.85293 | 9.17659 | 7510 ft | 276 kts | 163° |
| 2026-05-05 10:59 | 40.83504 | 9.18571 | 6963 ft | 274 kts | 163° |
| 2026-05-05 10:59 | 40.81734 | 9.19473 | 6447 ft | 271 kts | 163° |
| 2026-05-05 11:00 | 40.79994 | 9.20365 | 6129 ft | 262 kts | 162° |
| 2026-05-05 11:00 | 40.78352 | 9.21215 | 5996 ft | 247 kts | 162° |
| 2026-05-05 11:00 | 40.76777 | 9.22030 | 5877 ft | 239 kts | 162° |
| 2026-05-05 11:00 | 40.75290 | 9.22927 | 5734 ft | 234 kts | 148° |
| 2026-05-05 11:01 | 40.74291 | 9.24553 | 5608 ft | 233 kts | 114° |
| 2026-05-05 11:01 | 40.74109 | 9.26626 | 5478 ft | 227 kts | 78° |
| 2026-05-05 11:01 | 40.74795 | 9.28428 | 5281 ft | 219 kts | 42° |
| 2026-05-05 11:01 | 40.76072 | 9.29453 | 4964 ft | 216 kts | 16° |
| 2026-05-05 11:02 | 40.77503 | 9.29970 | 4774 ft | 208 kts | 13° |
| 2026-05-05 11:02 | 40.78768 | 9.30845 | 4499 ft | 207 kts | 41° |
| 2026-05-05 11:02 | 40.79660 | 9.32319 | 4189 ft | 205 kts | 55° |
| 2026-05-05 11:02 | 40.80465 | 9.33855 | 3851 ft | 205 kts | 55° |
| 2026-05-05 11:03 | 40.81284 | 9.35413 | 3337 ft | 207 kts | 54° |
| 2026-05-05 11:03 | 40.82091 | 9.36948 | 2943 ft | 199 kts | 56° |
| 2026-05-05 11:03 | 40.82855 | 9.38400 | 2609 ft | 187 kts | 55° |
| 2026-05-05 11:03 | 40.83572 | 9.39764 | 2332 ft | 176 kts | 54° |
| 2026-05-05 11:04 | 40.84238 | 9.41031 | 2087 ft | 161 kts | 54° |
| 2026-05-05 11:04 | 40.84861 | 9.42217 | 1834 ft | 153 kts | 54° |
| 2026-05-05 11:04 | 40.85459 | 9.43354 | 1594 ft | 148 kts | 54° |
| 2026-05-05 11:04 | 40.86039 | 9.44463 | 1351 ft | 145 kts | 54° |
| 2026-05-05 11:05 | 40.86610 | 9.45556 | 1122 ft | 144 kts | 54° |
| 2026-05-05 11:05 | 40.87177 | 9.46630 | 916 ft | 144 kts | 55° |
| 2026-05-05 11:05 | 40.87739 | 9.47698 | 719 ft | 139 kts | 54° |
| 2026-05-05 11:05 | 40.88280 | 9.48733 | 515 ft | 136 kts | 55° |
| 2026-05-05 11:06 | 40.88818 | 9.49756 | 310 ft | 135 kts | 57° |
| 2026-05-05 11:06 | 40.89346 | 9.50767 | 75 ft | 132 kts | 56° |
| 2026-05-05 11:06 | 40.89825 | 9.51686 | 34 ft | 102 kts | 56° |
| 2026-05-05 11:06 | 40.90132 | 9.52270 | 34 ft | 53 kts | 55° |
| 2026-05-05 11:07 | 40.90272 | 9.52537 | 34 ft | 30 kts | 55° |
| 2026-05-05 11:07 | 40.90358 | 9.52680 | 34 ft | 12 kts | 32° |
| 2026-05-05 11:07 | 40.90439 | 9.52668 | 33 ft | 13 kts | 315° |
| 2026-05-05 11:07 | 40.90453 | 9.52582 | 34 ft | 3 kts | 272° |
| 2026-05-05 11:08 | 40.90454 | 9.52542 | 34 ft | 6 kts | 272° |
| 2026-05-05 11:08 | 40.90447 | 9.52480 | 34 ft | 8 kts | 239° |
| 2026-05-05 11:08 | 40.90410 | 9.52411 | 34 ft | 10 kts | 235° |
| 2026-05-05 11:08 | 40.90365 | 9.52326 | 34 ft | 12 kts | 235° |
| 2026-05-05 11:09 | 40.90312 | 9.52225 | 34 ft | 14 kts | 235° |
| 2026-05-05 11:09 | 40.90251 | 9.52107 | 34 ft | 17 kts | 235° |
| 2026-05-05 11:09 | 40.90188 | 9.51986 | 34 ft | 11 kts | 238° |
| 2026-05-05 11:09 | 40.90180 | 9.51884 | 34 ft | 12 kts | 281° |
| 2026-05-05 11:10 | 40.90209 | 9.51800 | 34 ft | 9 kts | 321° |
| 2026-05-05 11:10 | 40.90219 | 9.51754 | 34 ft | 6 kts | 240° |
| 2026-05-05 11:10 | 40.90194 | 9.51719 | 34 ft | 2 kts | 206° |
| 2026-05-05 11:10 | 40.90178 | 9.51729 | 34 ft | 3 kts | 145° |
| 2026-05-05 11:11 | 40.90164 | 9.51745 | 34 ft | 1 kts | 129° |
| 2026-05-05 11:11 | 40.90166 | 9.51765 | 34 ft | 2 kts | 82° |
| 2026-05-05 11:11 | 40.90167 | 9.51769 | 34 ft | 0 kts | 82° |